Lakewood, New York
Current Conditions -  °F | °C
As of 6:15 PM on Thursday 27 Nov 2014 (Local Time) from KJHW Reporting Station
Overcast Overcast  
Wind Chill: 17°   Ceiling: 2800
Heat Index: 27°   Visibility: 5mi
Dew Point: 23°   Wind: 9mph
Humidity: 86%   Direction: 260°W
Pressure: 30.04"   Gusts: NA
Location:  42.1°N, 79.33°W
Report Text: KJHW 272315Z 26008KT 5SM SCT012 BKN028 OVC085 M03/M05 A3004 RMK AO1
Loading
Personal Weather Stations






























Interactive Weather Map New forecast layout! Learn more

10-Day Weather Forecast

Advertisements
Track Severe Weather on mobile